Star, Texas
Current Conditions -  °F | °C
As of 8:15 PM on Friday 24 Oct 2014 (Local Time) from KMNZ Reporting Station
Clear Clear  
Wind Chill: 71°   Ceiling: Unl
Heat Index: 71°   Visibility: 10mi
Dew Point: 58°   Wind: 13mph
Humidity: 64%   Direction: 190°S
Pressure: 30.12"   Gusts: NA
Location:  31.47°N, 98.32°W
Report Text: KMNZ 250115Z AUTO 19011KT 10SM CLR 22/15 A3012 RMK AO2 T02160145
Loading
Personal Weather Stations






























Interactive Weather Map
Tropical Storm Tracking
New forecast layout! Learn more

10-Day Weather Forecast

Advertisements
Track Severe Weather on mobile